Time;durP1;ratioP1;P1;durP2;ratioP2;P2;SDS_P1;SDS_P2;PMS_P1;PMS_P2;Temp;Humidity;BMP_temperature;BMP_pressure;BME280_temperature;BME280_humidity;BME280_pressure;Samples;Min_cycle;Max_cycle;Signal;HPM_P1;HPM_P2
2023/03/14 00:01:45;;;;;;;12.10;8.43;;;;;;;;;;5080156;28;20600;-85
2023/03/14 00:04:12;;;;;;;12.87;8.57;;;;;;;;;;5089633;28;20194;-84
2023/03/14 00:06:38;;;;;;;11.40;8.03;;;;;;;;;;5091254;28;20211;-85
2023/03/14 00:09:04;;;;;;;15.03;10.40;;;;;;;;;;5088508;28;20195;-82
2023/03/14 00:11:30;;;;;;;14.53;8.13;;;;;;;;;;5082681;28;20685;-82
2023/03/14 00:13:58;;;;;;;14.63;8.33;;;;;;;;;;5087654;28;20184;-85
2023/03/14 00:16:24;;;;;;;14.70;9.20;;;;;;;;;;5087489;28;20181;-85
2023/03/14 00:18:49;;;;;;;11.93;8.10;;;;;;;;;;5078450;28;20216;-82
2023/03/14 00:21:16;;;;;;;13.10;8.53;;;;;;;;;;5054840;28;20592;-84
2023/03/14 00:23:42;;;;;;;13.27;8.50;;;;;;;;;;5052655;28;20182;-83
2023/03/14 00:26:13;;;;;;;12.70;8.87;;;;;;;;;;5054452;28;20197;-83
2023/03/14 00:28:40;;;;;;;15.97;9.57;;;;;;;;;;5056742;28;20178;-84
2023/03/14 00:31:07;;;;;;;13.93;9.33;;;;;;;;;;5049695;28;20243;-85
2023/03/14 00:33:34;;;;;;;13.97;8.50;;;;;;;;;;5054202;28;20185;-84
2023/03/14 00:36:02;;;;;;;14.67;7.90;;;;;;;;;;5066100;28;20182;-84
2023/03/14 00:38:28;;;;;;;13.93;9.30;;;;;;;;;;5056528;28;20243;-84
2023/03/14 00:41:08;;;;;;;14.37;8.33;;;;;;;;;;5065189;28;20185;-83
2023/03/14 00:43:35;;;;;;;13.17;8.27;;;;;;;;;;5057585;28;20192;-84
2023/03/14 00:46:01;;;;;;;15.40;8.87;;;;;;;;;;5061600;28;20329;-83
2023/03/14 00:48:28;;;;;;;15.47;8.37;;;;;;;;;;5050323;28;20192;-83
2023/03/14 00:50:54;;;;;;;13.93;10.00;;;;;;;;;;5060172;28;20212;-84
2023/03/14 00:53:20;;;;;;;15.33;8.57;;;;;;;;;;5064888;28;20185;-85
2023/03/14 00:55:46;;;;;;;14.47;9.53;;;;;;;;;;5061450;28;20268;-82
2023/03/14 00:58:13;;;;;;;12.70;8.63;;;;;;;;;;5050584;28;20271;-82
2023/03/14 01:00:39;;;;;;;13.23;8.73;;;;;;;;;;5052155;28;20225;-83
2023/03/14 01:03:07;;;;;;;14.43;10.03;;;;;;;;;;5057282;28;20189;-83
2023/03/14 01:05:34;;;;;;;11.97;8.63;;;;;;;;;;5064612;28;20184;-85
2023/03/14 01:08:00;;;;;;;13.90;9.17;;;;;;;;;;5062648;28;20209;-86
2023/03/14 01:10:26;;;;;;;12.33;8.13;;;;;;;;;;5060045;28;20256;-83
2023/03/14 01:12:52;;;;;;;12.77;8.37;;;;;;;;;;5060017;28;20209;-85
2023/03/14 01:15:19;;;;;;;11.83;9.00;;;;;;;;;;5065162;28;20648;-83
2023/03/14 01:17:45;;;;;;;15.27;8.70;;;;;;;;;;5066456;28;20203;-84
2023/03/14 01:20:12;;;;;;;11.70;8.80;;;;;;;;;;5066915;28;20228;-83
2023/03/14 01:22:39;;;;;;;15.00;9.47;;;;;;;;;;5058038;28;20188;-84
2023/03/14 01:25:09;;;;;;;12.30;9.10;;;;;;;;;;5067075;28;20207;-83
2023/03/14 01:27:35;;;;;;;15.40;10.17;;;;;;;;;;5069669;28;20161;-84
2023/03/14 01:30:02;;;;;;;13.67;9.20;;;;;;;;;;5067631;28;20192;-82
2023/03/14 01:32:28;;;;;;;11.97;7.83;;;;;;;;;;5062318;28;20196;-83
2023/03/14 01:34:54;;;;;;;13.73;8.27;;;;;;;;;;5060476;28;20644;-82
2023/03/14 01:37:20;;;;;;;13.13;9.27;;;;;;;;;;5063512;28;20189;-83
2023/03/14 01:39:47;;;;;;;12.63;8.70;;;;;;;;;;5070446;28;20177;-83
2023/03/14 01:42:13;;;;;;;12.43;8.63;;;;;;;;;;5066889;28;20192;-85
2023/03/14 01:44:49;;;;;;;10.90;8.17;;;;;;;;;;5064824;28;20216;-83
2023/03/14 01:47:17;;;;;;;13.27;8.53;;;;;;;;;;5074989;28;20205;-82
2023/03/14 01:49:44;;;;;;;11.20;7.70;;;;;;;;;;5064984;28;20373;-82
2023/03/14 01:52:13;;;;;;;13.73;8.37;;;;;;;;;;5054470;28;20296;-84
2023/03/14 01:54:46;;;;;;;13.83;8.33;;;;;;;;;;5067848;28;20181;-84
2023/03/14 01:57:19;;;;;;;13.67;8.53;;;;;;;;;;5051132;28;20197;-83
2023/03/14 01:59:52;;;;;;;10.97;8.30;;;;;;;;;;5063524;28;20187;-83
2023/03/14 02:02:18;;;;;;;14.73;7.87;;;;;;;;;;5064842;28;20189;-84
2023/03/14 02:04:45;;;;;;;11.20;7.60;;;;;;;;;;5060717;28;20265;-85
2023/03/14 02:07:24;;;;;;;11.33;7.80;;;;;;;;;;5059688;28;20177;-86
2023/03/14 02:09:50;;;;;;;12.37;8.17;;;;;;;;;;5053234;28;20180;-84
2023/03/14 02:12:18;;;;;;;13.53;7.80;;;;;;;;;;5061278;28;20216;-85
2023/03/14 02:14:47;;;;;;;15.73;10.07;;;;;;;;;;5057665;28;20213;-86
2023/03/14 02:17:14;;;;;;;12.20;7.17;;;;;;;;;;5068430;28;20547;-86
2023/03/14 02:19:50;;;;;;;10.97;7.30;;;;;;;;;;5053025;28;20239;-87
2023/03/14 02:22:17;;;;;;;11.67;7.27;;;;;;;;;;5056179;28;20182;-86
2023/03/14 02:24:43;;;;;;;11.17;7.53;;;;;;;;;;5073559;28;20177;-84
2023/03/14 02:27:09;;;;;;;11.63;8.10;;;;;;;;;;5067625;28;20195;-85
2023/03/14 02:29:37;;;;;;;12.70;7.93;;;;;;;;;;5071817;28;20197;-86
2023/03/14 02:32:03;;;;;;;12.17;8.33;;;;;;;;;;5069537;28;20209;-86
2023/03/14 02:34:31;;;;;;;13.43;8.00;;;;;;;;;;5072883;28;20235;-85
2023/03/14 02:36:57;;;;;;;10.43;7.57;;;;;;;;;;5069155;28;20180;-84
2023/03/14 02:39:40;;;;;;;9.67;7.10;;;;;;;;;;5072572;28;20661;-85
2023/03/14 02:42:06;;;;;;;13.53;8.73;;;;;;;;;;5072023;28;20203;-87
2023/03/14 02:44:32;;;;;;;12.23;7.83;;;;;;;;;;5072585;28;20184;-86
2023/03/14 02:46:58;;;;;;;11.57;7.80;;;;;;;;;;5068342;28;20188;-86
2023/03/14 02:49:26;;;;;;;15.43;8.47;;;;;;;;;;5071445;28;20520;-84
2023/03/14 02:51:52;;;;;;;10.93;7.87;;;;;;;;;;5065823;28;20205;-84
2023/03/14 02:54:20;;;;;;;17.03;8.33;;;;;;;;;;5061794;28;20196;-88
2023/03/14 02:56:47;;;;;;;12.53;7.47;;;;;;;;;;5068213;28;20260;-85
2023/03/14 02:59:13;;;;;;;10.97;8.67;;;;;;;;;;5067716;28;21327;-84
2023/03/14 03:01:39;;;;;;;11.77;7.63;;;;;;;;;;5051621;28;20659;-85
2023/03/14 03:04:05;;;;;;;12.20;8.47;;;;;;;;;;5073452;28;20202;-86
2023/03/14 03:06:32;;;;;;;15.10;8.50;;;;;;;;;;5064118;28;20259;-84
2023/03/14 03:08:58;;;;;;;10.73;7.80;;;;;;;;;;5057428;28;20190;-84
2023/03/14 03:11:25;;;;;;;11.13;8.07;;;;;;;;;;5061303;28;20213;-86
2023/03/14 03:13:52;;;;;;;11.93;8.00;;;;;;;;;;5061910;28;20643;-86
2023/03/14 03:16:18;;;;;;;10.73;6.90;;;;;;;;;;5056353;28;20182;-85
2023/03/14 03:18:44;;;;;;;14.47;8.60;;;;;;;;;;5067967;28;20709;-87
2023/03/14 03:21:12;;;;;;;12.03;7.70;;;;;;;;;;5064153;28;20185;-84
2023/03/14 03:23:38;;;;;;;11.10;6.97;;;;;;;;;;5061627;28;20532;-85
2023/03/14 03:26:05;;;;;;;14.20;9.20;;;;;;;;;;5063205;28;20657;-85
2023/03/14 03:28:31;;;;;;;14.57;8.23;;;;;;;;;;5067914;28;20639;-86
2023/03/14 03:30:57;;;;;;;11.93;7.13;;;;;;;;;;5068464;28;20177;-85
2023/03/14 03:33:24;;;;;;;12.83;7.43;;;;;;;;;;5068505;28;20554;-85
2023/03/14 03:35:51;;;;;;;12.43;6.97;;;;;;;;;;5067241;28;20180;-84
2023/03/14 03:38:20;;;;;;;10.33;6.50;;;;;;;;;;5069227;28;20267;-84
2023/03/14 03:40:47;;;;;;;15.13;6.83;;;;;;;;;;5070815;28;20665;-86
2023/03/14 03:43:13;;;;;;;12.60;7.27;;;;;;;;;;5071448;28;20207;-85
2023/03/14 03:45:39;;;;;;;13.20;7.27;;;;;;;;;;5070101;28;20591;-84
2023/03/14 03:48:05;;;;;;;10.53;7.30;;;;;;;;;;5067932;28;20191;-86
2023/03/14 03:50:31;;;;;;;13.77;8.13;;;;;;;;;;5068434;28;20263;-86
2023/03/14 03:52:58;;;;;;;13.20;6.37;;;;;;;;;;5064380;28;20632;-86
2023/03/14 03:55:25;;;;;;;12.43;7.83;;;;;;;;;;5065555;28;20207;-87
2023/03/14 03:57:52;;;;;;;9.67;6.77;;;;;;;;;;5069636;28;20235;-84
2023/03/14 04:00:18;;;;;;;9.77;7.00;;;;;;;;;;5064806;28;20216;-83
2023/03/14 04:02:45;;;;;;;10.77;6.90;;;;;;;;;;5065876;28;20650;-85
2023/03/14 04:05:11;;;;;;;9.93;6.27;;;;;;;;;;5059482;28;20235;-86
2023/03/14 04:07:38;;;;;;;10.57;6.23;;;;;;;;;;5067901;28;20173;-85
2023/03/14 04:10:05;;;;;;;11.00;6.90;;;;;;;;;;5058032;28;20200;-85
2023/03/14 04:12:31;;;;;;;10.73;6.97;;;;;;;;;;5064745;28;20286;-84
2023/03/14 04:14:57;;;;;;;8.57;6.60;;;;;;;;;;5065966;28;20193;-84
2023/03/14 04:17:23;;;;;;;9.63;6.63;;;;;;;;;;5067236;28;20189;-84
2023/03/14 04:19:51;;;;;;;10.07;6.57;;;;;;;;;;5080825;28;20285;-86
2023/03/14 04:22:17;;;;;;;10.70;6.40;;;;;;;;;;5085173;28;20179;-87
2023/03/14 04:24:43;;;;;;;8.10;5.87;;;;;;;;;;5077750;28;20188;-87
2023/03/14 04:27:11;;;;;;;9.73;6.43;;;;;;;;;;5080829;28;20222;-85
2023/03/14 04:29:38;;;;;;;12.27;7.13;;;;;;;;;;5082585;28;20177;-85
2023/03/14 04:32:04;;;;;;;8.53;6.23;;;;;;;;;;5088309;28;20892;-84
2023/03/14 04:34:30;;;;;;;9.07;7.30;;;;;;;;;;5088787;28;20188;-87
2023/03/14 04:36:56;;;;;;;9.57;5.93;;;;;;;;;;5085895;28;20168;-87
2023/03/14 04:39:22;;;;;;;9.90;5.80;;;;;;;;;;5088959;28;20642;-86
2023/03/14 04:41:48;;;;;;;8.90;6.53;;;;;;;;;;5087514;28;20188;-86
2023/03/14 04:44:14;;;;;;;11.03;6.87;;;;;;;;;;5088552;28;20195;-83
2023/03/14 04:46:40;;;;;;;9.93;6.13;;;;;;;;;;5083845;28;21011;-86
2023/03/14 04:49:06;;;;;;;9.00;5.60;;;;;;;;;;5083847;28;20278;-86
2023/03/14 04:51:32;;;;;;;12.23;8.10;;;;;;;;;;5089791;28;20262;-84
2023/03/14 04:53:59;;;;;;;9.40;5.80;;;;;;;;;;5088141;28;20695;-84
2023/03/14 04:56:27;;;;;;;12.67;6.00;;;;;;;;;;5088095;28;20656;-84
2023/03/14 04:58:53;;;;;;;10.80;5.90;;;;;;;;;;5084176;28;20193;-84
2023/03/14 05:01:19;;;;;;;8.77;6.07;;;;;;;;;;5083334;28;20176;-85
2023/03/14 05:03:45;;;;;;;8.47;5.50;;;;;;;;;;5074993;28;20559;-84
2023/03/14 05:06:12;;;;;;;9.57;6.07;;;;;;;;;;5076352;28;20318;-85
2023/03/14 05:08:38;;;;;;;16.07;7.60;;;;;;;;;;5079267;28;20183;-85
2023/03/14 05:11:05;;;;;;;9.83;7.67;;;;;;;;;;5084746;28;20181;-85
2023/03/14 05:13:32;;;;;;;11.50;7.47;;;;;;;;;;5088811;28;20172;-85
2023/03/14 05:16:08;;;;;;;13.20;6.77;;;;;;;;;;5084425;28;20689;-86
2023/03/14 05:18:34;;;;;;;12.53;7.53;;;;;;;;;;5074561;28;20607;-85
2023/03/14 05:21:00;;;;;;;9.60;6.87;;;;;;;;;;5052608;28;20178;-87
2023/03/14 05:23:26;;;;;;;9.63;6.13;;;;;;;;;;5052257;28;20276;-84
2023/03/14 05:25:52;;;;;;;8.27;5.30;;;;;;;;;;5052671;28;20189;-87
2023/03/14 05:28:18;;;;;;;11.77;6.03;;;;;;;;;;5056039;28;20690;-84
2023/03/14 05:30:45;;;;;;;10.50;7.17;;;;;;;;;;5055721;28;20185;-85
2023/03/14 05:33:11;;;;;;;10.43;7.27;;;;;;;;;;5043307;28;20223;-85
2023/03/14 05:35:38;;;;;;;11.73;7.77;;;;;;;;;;5048922;28;20252;-84
2023/03/14 05:38:04;;;;;;;10.60;7.00;;;;;;;;;;5053731;28;20665;-85
2023/03/14 05:40:31;;;;;;;11.73;7.33;;;;;;;;;;5056829;28;20583;-85
2023/03/14 05:42:57;;;;;;;11.53;6.97;;;;;;;;;;5051154;28;20412;-85
2023/03/14 05:45:23;;;;;;;12.50;8.57;;;;;;;;;;5059638;28;20296;-85
2023/03/14 05:47:49;;;;;;;12.30;7.33;;;;;;;;;;5057440;28;20185;-85
2023/03/14 05:50:15;;;;;;;9.60;5.97;;;;;;;;;;5060411;28;20181;-86
2023/03/14 05:52:41;;;;;;;10.03;6.20;;;;;;;;;;5059330;28;20259;-85
2023/03/14 05:55:08;;;;;;;10.57;7.47;;;;;;;;;;5055965;28;20264;-85
2023/03/14 05:57:34;;;;;;;11.03;5.57;;;;;;;;;;5058733;28;20280;-86
2023/03/14 06:00:00;;;;;;;10.70;5.70;;;;;;;;;;5052638;28;20272;-86
2023/03/14 06:02:27;;;;;;;9.27;5.83;;;;;;;;;;5059779;28;20181;-86
2023/03/14 06:04:53;;;;;;;6.93;5.03;;;;;;;;;;5055518;28;20197;-86
2023/03/14 06:07:20;;;;;;;9.20;5.27;;;;;;;;;;5056062;28;20756;-84
2023/03/14 06:09:46;;;;;;;7.73;5.10;;;;;;;;;;5059298;28;20603;-86
2023/03/14 06:12:12;;;;;;;7.67;4.77;;;;;;;;;;5057792;28;20274;-85
2023/03/14 06:14:39;;;;;;;9.57;5.97;;;;;;;;;;5054675;28;20558;-85
2023/03/14 06:17:06;;;;;;;11.20;5.33;;;;;;;;;;5059607;28;20635;-85
2023/03/14 06:19:33;;;;;;;7.07;5.33;;;;;;;;;;5056474;28;20221;-84
2023/03/14 06:21:59;;;;;;;10.77;5.00;;;;;;;;;;5060045;28;20296;-83
2023/03/14 06:24:25;;;;;;;7.30;5.20;;;;;;;;;;5052921;28;20691;-85
2023/03/14 06:26:51;;;;;;;8.03;5.33;;;;;;;;;;5050948;28;20223;-85
2023/03/14 06:29:17;;;;;;;7.80;5.03;;;;;;;;;;5073405;28;20190;-85
2023/03/14 06:31:43;;;;;;;9.40;5.00;;;;;;;;;;5065975;28;20585;-85
2023/03/14 06:34:09;;;;;;;6.60;4.93;;;;;;;;;;5054308;28;20207;-86
2023/03/14 06:36:35;;;;;;;8.03;5.10;;;;;;;;;;5060080;28;20181;-86
2023/03/14 06:39:03;;;;;;;7.57;4.80;;;;;;;;;;5053675;28;20178;-85
2023/03/14 06:41:30;;;;;;;7.30;5.13;;;;;;;;;;5055339;28;20276;-85
2023/03/14 06:43:56;;;;;;;10.10;5.30;;;;;;;;;;5059491;28;20200;-85
2023/03/14 06:46:22;;;;;;;6.73;5.37;;;;;;;;;;5058291;28;20268;-86
2023/03/14 06:48:48;;;;;;;7.43;5.13;;;;;;;;;;5048184;28;20264;-84
2023/03/14 06:51:15;;;;;;;9.50;5.30;;;;;;;;;;5052381;28;20568;-85
2023/03/14 06:53:41;;;;;;;7.90;4.97;;;;;;;;;;5049226;28;20189;-85
2023/03/14 06:56:10;;;;;;;6.30;5.00;;;;;;;;;;5056731;28;20570;-85
2023/03/14 06:58:36;;;;;;;7.47;4.87;;;;;;;;;;5064177;28;20174;-85
2023/03/14 07:01:02;;;;;;;6.97;4.70;;;;;;;;;;5058066;28;20209;-85
2023/03/14 07:03:29;;;;;;;6.87;4.83;;;;;;;;;;5054288;28;20182;-85
2023/03/14 07:05:55;;;;;;;9.07;5.47;;;;;;;;;;5052051;28;20186;-85
2023/03/14 07:08:52;;;;;;;8.27;5.00;;;;;;;;;;5049503;28;20610;-85
2023/03/14 07:11:18;;;;;;;7.90;4.60;;;;;;;;;;5080671;28;20526;-84
2023/03/14 07:13:44;;;;;;;7.17;4.70;;;;;;;;;;5066602;28;20194;-85
2023/03/14 07:16:10;;;;;;;7.80;4.67;;;;;;;;;;5063953;28;21086;-85
2023/03/14 07:18:37;;;;;;;8.90;4.43;;;;;;;;;;5075017;28;20227;-84
2023/03/14 07:21:03;;;;;;;6.20;4.60;;;;;;;;;;5088930;28;20195;-85
2023/03/14 07:23:30;;;;;;;8.63;4.57;;;;;;;;;;5089025;28;20207;-84
2023/03/14 07:25:56;;;;;;;7.70;4.80;;;;;;;;;;5077140;28;20229;-85
2023/03/14 07:28:23;;;;;;;7.30;4.73;;;;;;;;;;5084053;28;20188;-87
2023/03/14 07:30:49;;;;;;;7.23;4.67;;;;;;;;;;5082466;28;20191;-86
2023/03/14 07:33:17;;;;;;;9.40;5.20;;;;;;;;;;5087371;28;20238;-84
2023/03/14 07:35:44;;;;;;;6.40;4.63;;;;;;;;;;5078728;28;20188;-86
2023/03/14 07:38:10;;;;;;;10.23;5.00;;;;;;;;;;5077911;28;20175;-84
2023/03/14 07:40:36;;;;;;;14.43;4.80;;;;;;;;;;5076258;28;20271;-84
2023/03/14 07:43:02;;;;;;;6.03;4.60;;;;;;;;;;5103523;28;20779;-86
2023/03/14 07:45:30;;;;;;;7.77;4.50;;;;;;;;;;5085719;28;20180;-84
2023/03/14 07:47:57;;;;;;;6.53;4.53;;;;;;;;;;5098616;28;20176;-84
2023/03/14 07:50:26;;;;;;;8.27;4.50;;;;;;;;;;5104521;28;20176;-86
2023/03/14 07:52:54;;;;;;;6.63;4.80;;;;;;;;;;5100217;28;20197;-87
2023/03/14 07:55:22;;;;;;;7.37;4.30;;;;;;;;;;5082322;28;20217;-85
2023/03/14 07:57:48;;;;;;;10.73;4.97;;;;;;;;;;5085828;28;20257;-84
2023/03/14 08:00:14;;;;;;;7.67;4.63;;;;;;;;;;5088726;28;20827;-87
2023/03/14 08:02:47;;;;;;;7.00;4.20;;;;;;;;;;5088084;28;20187;-87
2023/03/14 08:05:13;;;;;;;6.53;4.90;;;;;;;;;;5101997;28;20188;-86
2023/03/14 08:07:41;;;;;;;7.17;4.40;;;;;;;;;;5084449;28;20640;-86
2023/03/14 08:10:08;;;;;;;9.40;4.50;;;;;;;;;;5089440;28;20302;-85
2023/03/14 08:12:34;;;;;;;10.50;4.30;;;;;;;;;;5090104;28;20856;-85
2023/03/14 08:15:00;;;;;;;6.13;4.43;;;;;;;;;;5090673;28;20179;-85
2023/03/14 08:17:27;;;;;;;7.13;4.50;;;;;;;;;;5089938;28;20211;-85
2023/03/14 08:19:54;;;;;;;9.67;4.60;;;;;;;;;;5085196;28;20219;-85
2023/03/14 08:22:21;;;;;;;7.07;4.83;;;;;;;;;;5087071;28;20193;-85
2023/03/14 08:24:47;;;;;;;6.70;4.53;;;;;;;;;;5079847;28;20180;-85
2023/03/14 08:27:14;;;;;;;9.43;4.53;;;;;;;;;;5108702;28;20222;-84
2023/03/14 08:29:41;;;;;;;7.37;5.17;;;;;;;;;;5090280;28;20325;-84
2023/03/14 08:32:07;;;;;;;6.10;4.27;;;;;;;;;;5090154;28;20203;-85
2023/03/14 08:34:34;;;;;;;9.00;4.37;;;;;;;;;;5084604;28;20669;-84
2023/03/14 08:37:00;;;;;;;6.83;4.13;;;;;;;;;;5090299;28;20179;-85
2023/03/14 08:39:26;;;;;;;11.00;4.50;;;;;;;;;;5086091;28;20207;-85
2023/03/14 08:41:52;;;;;;;8.17;4.57;;;;;;;;;;5090713;28;20270;-84
2023/03/14 08:44:18;;;;;;;5.07;4.00;;;;;;;;;;5079489;28;20903;-84
2023/03/14 08:46:44;;;;;;;7.93;4.40;;;;;;;;;;5090737;28;20523;-85
2023/03/14 08:49:10;;;;;;;6.37;4.60;;;;;;;;;;5087481;28;20838;-84
2023/03/14 08:51:36;;;;;;;6.37;4.10;;;;;;;;;;5089867;28;20205;-84
2023/03/14 08:54:02;;;;;;;9.97;4.80;;;;;;;;;;5088620;28;20177;-85
2023/03/14 08:56:28;;;;;;;6.27;4.00;;;;;;;;;;5090244;28;20248;-84
2023/03/14 08:58:54;;;;;;;7.57;4.50;;;;;;;;;;5090859;28;20633;-85
2023/03/14 09:01:23;;;;;;;7.70;4.17;;;;;;;;;;5107529;28;20207;-85
2023/03/14 09:03:50;;;;;;;5.27;4.23;;;;;;;;;;5090703;28;20176;-85
2023/03/14 09:06:19;;;;;;;5.23;4.00;;;;;;;;;;5091382;28;20186;-85
2023/03/14 09:08:45;;;;;;;6.17;4.47;;;;;;;;;;5073982;28;20632;-84
2023/03/14 09:11:11;;;;;;;7.07;4.13;;;;;;;;;;5087827;28;20178;-85
2023/03/14 09:13:37;;;;;;;6.40;4.13;;;;;;;;;;5088126;28;20657;-84
2023/03/14 09:16:04;;;;;;;7.23;4.00;;;;;;;;;;5090682;28;20180;-85
2023/03/14 09:18:30;;;;;;;6.17;4.20;;;;;;;;;;5108471;28;20688;-85
2023/03/14 09:20:56;;;;;;;8.43;3.90;;;;;;;;;;5089988;28;20182;-84
2023/03/14 09:23:22;;;;;;;6.43;4.40;;;;;;;;;;5083549;28;20188;-85
2023/03/14 09:25:48;;;;;;;9.77;4.27;;;;;;;;;;5088237;28;20258;-84
2023/03/14 09:28:14;;;;;;;6.40;3.83;;;;;;;;;;5086336;28;20695;-85
2023/03/14 09:30:40;;;;;;;8.23;4.17;;;;;;;;;;5086839;28;20192;-85
2023/03/14 09:33:08;;;;;;;7.30;4.00;;;;;;;;;;5089905;28;20211;-84
2023/03/14 09:35:34;;;;;;;6.60;3.90;;;;;;;;;;5093069;28;20267;-85
2023/03/14 09:38:00;;;;;;;4.80;3.80;;;;;;;;;;5071853;28;20184;-85
2023/03/14 09:40:31;;;;;;;6.67;4.00;;;;;;;;;;5086157;28;20194;-85
2023/03/14 09:42:58;;;;;;;7.20;4.10;;;;;;;;;;5089375;28;20187;-85
2023/03/14 09:45:29;;;;;;;6.03;4.50;;;;;;;;;;5088847;28;20680;-84
2023/03/14 09:47:57;;;;;;;6.13;4.00;;;;;;;;;;5087503;28;20188;-85
2023/03/14 09:50:25;;;;;;;5.93;3.83;;;;;;;;;;5108127;28;20553;-84
2023/03/14 09:52:53;;;;;;;5.70;3.67;;;;;;;;;;5092388;28;20199;-85
2023/03/14 09:55:21;;;;;;;7.17;4.07;;;;;;;;;;5080583;28;20199;-84
2023/03/14 09:57:48;;;;;;;7.00;3.83;;;;;;;;;;5075785;28;20340;-85
2023/03/14 10:00:16;;;;;;;5.40;3.90;;;;;;;;;;5092156;28;20282;-85
2023/03/14 10:03:15;;;;;;;6.93;4.40;;;;;;;;;;5089141;28;20188;-84
2023/03/14 10:05:42;;;;;;;4.67;3.57;;;;;;;;;;5003550;28;20541;-84
2023/03/14 10:08:12;;;;;;;6.43;3.37;;;;;;;;;;5027419;28;20190;-85
2023/03/14 10:10:38;;;;;;;8.70;3.80;;;;;;;;;;5011111;28;20236;-84
2023/03/14 10:13:25;;;;;;;7.67;3.40;;;;;;;;;;4998440;28;20563;-84
2023/03/14 10:15:55;;;;;;;4.90;3.80;;;;;;;;;;5005880;28;20206;-85
2023/03/14 10:18:23;;;;;;;7.77;4.30;;;;;;;;;;5007838;28;20317;-85
2023/03/14 10:20:50;;;;;;;6.03;4.30;;;;;;;;;;5007395;28;20202;-85
2023/03/14 10:23:16;;;;;;;5.50;4.30;;;;;;;;;;5007441;28;20636;-84
2023/03/14 10:25:43;;;;;;;6.23;4.50;;;;;;;;;;5009251;28;20224;-85
2023/03/14 10:28:26;;;;;;;5.07;3.83;;;;;;;;;;5026249;28;20199;-85
2023/03/14 10:30:52;;;;;;;6.20;4.53;;;;;;;;;;5029086;28;20194;-85
2023/03/14 10:33:18;;;;;;;6.93;3.90;;;;;;;;;;5010844;28;20210;-85
2023/03/14 10:35:44;;;;;;;7.57;3.70;;;;;;;;;;5011673;28;20285;-84
2023/03/14 10:38:15;;;;;;;5.13;3.80;;;;;;;;;;5013020;28;20558;-84
2023/03/14 10:40:48;;;;;;;9.30;4.00;;;;;;;;;;5026924;28;20195;-85
2023/03/14 10:43:18;;;;;;;6.77;4.13;;;;;;;;;;5091891;28;20202;-84
2023/03/14 10:45:45;;;;;;;5.83;3.70;;;;;;;;;;5091131;28;20190;-84
2023/03/14 10:48:14;;;;;;;7.37;4.30;;;;;;;;;;5081628;28;20293;-85
2023/03/14 10:50:48;;;;;;;6.07;3.63;;;;;;;;;;5089651;28;20191;-85
2023/03/14 10:53:18;;;;;;;5.87;3.63;;;;;;;;;;5082217;28;20290;-85
2023/03/14 10:55:45;;;;;;;7.67;4.20;;;;;;;;;;5108707;28;20225;-85
2023/03/14 10:58:25;;;;;;;5.63;4.00;;;;;;;;;;5092076;28;20194;-85
2023/03/14 11:00:54;;;;;;;6.60;4.37;;;;;;;;;;5105004;28;20251;-85
2023/03/14 11:03:22;;;;;;;7.03;3.90;;;;;;;;;;5105958;28;20524;-85
2023/03/14 11:05:56;;;;;;;7.77;4.00;;;;;;;;;;5089941;28;20176;-84
2023/03/14 11:08:38;;;;;;;5.97;4.57;;;;;;;;;;5083062;28;20199;-85
2023/03/14 11:11:11;;;;;;;10.10;4.17;;;;;;;;;;5090651;28;20539;-85
2023/03/14 11:14:06;;;;;;;10.87;4.30;;;;;;;;;;5085469;28;20217;-85
2023/03/14 11:16:50;;;;;;;5.43;3.87;;;;;;;;;;5010537;28;20281;-85
2023/03/14 11:19:17;;;;;;;6.03;4.20;;;;;;;;;;5021119;28;20237;-85
2023/03/14 11:21:52;;;;;;;9.33;4.90;;;;;;;;;;5001346;28;20247;-85
2023/03/14 11:24:28;;;;;;;9.03;4.73;;;;;;;;;;5027773;28;20212;-85
2023/03/14 11:26:59;;;;;;;5.97;4.37;;;;;;;;;;5009865;28;20281;-85
2023/03/14 11:29:30;;;;;;;5.87;4.60;;;;;;;;;;5028208;28;20261;-85
2023/03/14 11:31:59;;;;;;;6.67;4.70;;;;;;;;;;5006365;28;20207;-85
2023/03/14 11:34:29;;;;;;;9.33;4.60;;;;;;;;;;5022574;28;20593;-85
2023/03/14 11:37:21;;;;;;;11.50;5.17;;;;;;;;;;5020369;28;20532;-85
2023/03/14 11:39:51;;;;;;;8.93;4.80;;;;;;;;;;4950043;28;20198;-85
2023/03/14 11:42:18;;;;;;;11.93;5.00;;;;;;;;;;4951230;28;20196;-85
2023/03/14 11:44:47;;;;;;;7.80;4.87;;;;;;;;;;4951538;28;20207;-85
2023/03/14 11:47:27;;;;;;;7.23;4.77;;;;;;;;;;4965499;28;20666;-85
2023/03/14 11:50:01;;;;;;;8.57;5.30;;;;;;;;;;4952316;28;20192;-84
2023/03/14 11:52:35;;;;;;;8.90;5.53;;;;;;;;;;4977118;28;20692;-85
2023/03/14 11:55:05;;;;;;;9.47;4.87;;;;;;;;;;5030068;28;20192;-85
2023/03/14 11:57:31;;;;;;;8.93;5.07;;;;;;;;;;5032202;28;20194;-85
2023/03/14 12:00:04;;;;;;;7.10;4.90;;;;;;;;;;5029773;28;20229;-84
2023/03/14 12:02:30;;;;;;;11.10;4.83;;;;;;;;;;5049883;28;20182;-85
2023/03/14 12:05:14;;;;;;;8.23;5.43;;;;;;;;;;5046224;28;20190;-85
2023/03/14 12:07:52;;;;;;;9.50;5.37;;;;;;;;;;5029142;28;20194;-85
2023/03/14 12:10:18;;;;;;;7.97;5.20;;;;;;;;;;5029392;28;20204;-85
2023/03/14 12:12:44;;;;;;;12.67;5.60;;;;;;;;;;5021237;28;20361;-83
2023/03/14 12:15:18;;;;;;;8.90;5.73;;;;;;;;;;5026734;28;20195;-85
2023/03/14 12:17:46;;;;;;;10.17;5.77;;;;;;;;;;5078742;28;20192;-85
2023/03/14 12:20:15;;;;;;;7.57;5.20;;;;;;;;;;5082553;28;20308;-85
2023/03/14 12:22:47;;;;;;;11.23;5.73;;;;;;;;;;5086206;28;20196;-85
2023/03/14 12:25:16;;;;;;;8.63;5.73;;;;;;;;;;5090867;28;20702;-85
2023/03/14 12:27:46;;;;;;;9.63;6.00;;;;;;;;;;5086099;28;20203;-85
2023/03/14 12:30:39;;;;;;;9.27;5.67;;;;;;;;;;5103815;28;20183;-85
2023/03/14 12:33:17;;;;;;;8.83;6.03;;;;;;;;;;5085577;28;20223;-85
2023/03/14 12:35:44;;;;;;;9.27;6.30;;;;;;;;;;5087732;28;20186;-85
2023/03/14 12:38:23;;;;;;;10.20;6.23;;;;;;;;;;5104899;28;20186;-85
2023/03/14 12:40:49;;;;;;;9.33;6.07;;;;;;;;;;5087148;28;20187;-85
2023/03/14 12:43:45;;;;;;;11.07;6.23;;;;;;;;;;5089698;28;20555;-84
2023/03/14 12:46:27;;;;;;;9.97;6.10;;;;;;;;;;5081552;28;20563;-84
2023/03/14 12:49:02;;;;;;;8.13;5.73;;;;;;;;;;5088891;28;20312;-84
2023/03/14 12:51:36;;;;;;;10.63;6.03;;;;;;;;;;5090614;28;20182;-84
2023/03/14 12:54:08;;;;;;;7.20;5.30;;;;;;;;;;5088853;28;20308;-85
2023/03/14 12:56:53;;;;;;;9.40;5.60;;;;;;;;;;5090468;28;20180;-85
2023/03/14 12:59:30;;;;;;;9.20;5.77;;;;;;;;;;5088511;28;20681;-85
2023/03/14 13:01:59;;;;;;;7.67;5.20;;;;;;;;;;5088122;28;20233;-84
2023/03/14 13:04:44;;;;;;;9.13;6.17;;;;;;;;;;5090462;28;20225;-84
2023/03/14 13:07:33;;;;;;;8.57;5.00;;;;;;;;;;5105805;28;20183;-85
2023/03/14 13:10:03;;;;;;;12.33;6.40;;;;;;;;;;5012480;28;20194;-85
2023/03/14 13:12:37;;;;;;;9.20;5.80;;;;;;;;;;5026279;28;20212;-85
2023/03/14 13:15:04;;;;;;;9.20;5.93;;;;;;;;;;5024890;28;20267;-84
2023/03/14 13:17:34;;;;;;;11.60;6.00;;;;;;;;;;5009837;28;20182;-85
2023/03/14 13:20:05;;;;;;;8.90;5.43;;;;;;;;;;5025340;28;20240;-85
2023/03/14 13:22:48;;;;;;;7.73;5.80;;;;;;;;;;5009527;28;20209;-84
2023/03/14 13:25:16;;;;;;;9.40;5.70;;;;;;;;;;5025298;28;20179;-84
2023/03/14 13:27:42;;;;;;;13.27;6.80;;;;;;;;;;5025764;28;20218;-85
2023/03/14 13:30:28;;;;;;;8.03;5.93;;;;;;;;;;5025458;28;21012;-85
2023/03/14 13:32:55;;;;;;;9.50;6.20;;;;;;;;;;5022876;28;20202;-85
2023/03/14 13:35:26;;;;;;;10.80;6.33;;;;;;;;;;5010671;28;20796;-84
2023/03/14 13:37:53;;;;;;;9.07;6.23;;;;;;;;;;5009353;28;20591;-85
2023/03/14 13:40:21;;;;;;;10.03;6.70;;;;;;;;;;5009026;28;20201;-85
2023/03/14 13:42:47;;;;;;;10.83;6.63;;;;;;;;;;5025658;28;20190;-85
2023/03/14 13:45:14;;;;;;;10.23;7.67;;;;;;;;;;5014808;28;20217;-85
2023/03/14 13:47:40;;;;;;;11.23;7.20;;;;;;;;;;5073817;28;20180;-84
2023/03/14 13:50:13;;;;;;;10.70;7.33;;;;;;;;;;5088837;28;20215;-84
2023/03/14 13:52:39;;;;;;;12.63;7.60;;;;;;;;;;5085985;28;20588;-84
2023/03/14 13:55:06;;;;;;;13.87;7.60;;;;;;;;;;5085932;28;20270;-84
2023/03/14 13:57:46;;;;;;;11.07;7.00;;;;;;;;;;5084633;28;20676;-84
2023/03/14 14:00:20;;;;;;;10.60;7.53;;;;;;;;;;5102468;28;20234;-84
2023/03/14 14:02:46;;;;;;;10.60;7.53;;;;;;;;;;5091954;28;20239;-84
2023/03/14 14:05:19;;;;;;;9.90;6.90;;;;;;;;;;5087932;28;20192;-84
2023/03/14 14:07:45;;;;;;;7.67;5.90;;;;;;;;;;5091774;28;20194;-84
2023/03/14 14:10:13;;;;;;;10.50;6.53;;;;;;;;;;5088612;28;20195;-84
2023/03/14 14:12:49;;;;;;;10.23;6.37;;;;;;;;;;5085176;28;20204;-83
2023/03/14 14:15:23;;;;;;;10.07;6.47;;;;;;;;;;5075966;28;20192;-84
2023/03/14 14:17:52;;;;;;;6.83;6.10;;;;;;;;;;5101089;28;20649;-84
2023/03/14 14:20:34;;;;;;;8.63;5.80;;;;;;;;;;5099100;28;20224;-84
2023/03/14 14:23:04;;;;;;;6.77;5.97;;;;;;;;;;5090464;28;20697;-84
2023/03/14 14:25:30;;;;;;;8.10;5.80;;;;;;;;;;5086884;28;20188;-83
2023/03/14 14:27:57;;;;;;;7.70;6.53;;;;;;;;;;5089733;28;20325;-84
2023/03/14 14:30:28;;;;;;;9.00;6.60;;;;;;;;;;5104363;28;20594;-84
2023/03/14 14:33:07;;;;;;;9.40;6.60;;;;;;;;;;5090139;28;20196;-84
2023/03/14 14:35:34;;;;;;;9.27;6.43;;;;;;;;;;5092814;28;20199;-85
2023/03/14 14:38:01;;;;;;;7.37;5.70;;;;;;;;;;5089788;28;20682;-85
2023/03/14 14:40:29;;;;;;;9.13;6.23;;;;;;;;;;5091213;28;20180;-84
2023/03/14 14:42:56;;;;;;;8.07;5.80;;;;;;;;;;5108945;28;20199;-85
2023/03/14 14:45:24;;;;;;;7.90;6.57;;;;;;;;;;5080996;28;20265;-85